createdAt,value
2018-01-02T00:31:37.069Z,99594
2018-01-02T00:39:30.638Z,99614
2018-01-02T00:47:40.743Z,99633
2018-01-02T00:56:05.532Z,99618
2018-01-02T01:26:04.918Z,99694
2018-01-02T01:50:27.164Z,99737
2018-01-02T01:53:02.444Z,99737
2018-01-02T03:34:27.960Z,99661
2018-01-02T03:49:19.874Z,99811
2018-01-02T04:33:22.397Z,99864
2018-01-02T04:50:21.555Z,99885
2018-01-02T04:58:17.716Z,99903
2018-01-02T05:37:36.393Z,99994
2018-01-02T06:05:01.446Z,100047
2018-01-02T06:10:51.795Z,100055
2018-01-02T07:01:04.373Z,100145
2018-01-02T07:09:23.649Z,100163
2018-01-02T07:11:58.376Z,100167
2018-01-02T07:17:47.377Z,100170
2018-01-02T07:23:21.058Z,100180
2018-01-02T07:26:07.713Z,100187
2018-01-02T07:31:43.680Z,100196
2018-01-02T07:34:26.585Z,100198
2018-01-02T07:37:08.329Z,100218
2018-01-02T07:39:38.758Z,100219
2018-01-02T08:03:13.140Z,100290
2018-01-02T08:14:28.630Z,100323
2018-01-02T08:16:56.819Z,100333
2018-01-02T08:19:24.916Z,100323
2018-01-02T08:21:54.432Z,100337
2018-01-02T08:24:22.548Z,100323
2018-01-02T08:26:51.160Z,100345
2018-01-02T08:32:35.190Z,100356
2018-01-02T08:35:08.336Z,100351
2018-01-02T08:37:36.456Z,100352
2018-01-02T08:40:05.655Z,100355
2018-01-02T08:42:41.596Z,100363
2018-01-02T08:45:10.784Z,100367
2018-01-02T08:50:57.274Z,100380
2018-01-02T08:53:27.308Z,100388
2018-01-02T08:55:55.647Z,100389
2018-01-02T08:58:23.763Z,100391
2018-01-02T09:00:51.936Z,100399
2018-01-02T09:03:20.136Z,100404
2018-01-02T09:05:48.560Z,100417
2018-01-02T09:08:16.644Z,100416
2018-01-02T09:10:44.753Z,100418
2018-01-02T09:13:16.858Z,100417
2018-01-02T09:15:45.004Z,100424
2018-01-02T09:18:13.960Z,100426
2018-01-02T09:20:42.035Z,100435
2018-01-02T09:23:10.191Z,100431
2018-01-02T09:25:38.349Z,100433
2018-01-02T09:28:06.581Z,100441
2018-01-02T09:30:34.794Z,100446
2018-01-02T09:33:04.682Z,100454
2018-01-02T09:35:34.818Z,100458
2018-01-02T09:38:06.001Z,100471
2018-01-02T09:40:36.218Z,100473
2018-01-02T09:43:04.312Z,100472
2018-01-02T09:45:33.859Z,100469
2018-01-02T09:48:01.993Z,100470
2018-01-02T09:59:04.234Z,100470
2018-01-02T10:01:35.673Z,100475
2018-01-02T10:08:09.221Z,100472
2018-01-02T10:10:37.473Z,100476
2018-01-02T10:13:06.576Z,100468
2018-01-02T10:15:34.896Z,100472
2018-01-02T10:18:03.037Z,100479
2018-01-02T10:20:31.349Z,100470
2018-01-02T10:25:43.004Z,100479
2018-01-02T10:28:16.695Z,100470
2018-01-02T10:30:45.320Z,100478
2018-01-02T10:33:14.348Z,100480
2018-01-02T10:35:43.448Z,100492
2018-01-02T10:38:13.887Z,100478
2018-01-02T10:40:43.041Z,100492
2018-01-02T10:43:11.165Z,100476
2018-01-02T10:45:39.909Z,100476
2018-01-02T10:48:08.063Z,100509
2018-01-02T10:50:36.166Z,100476
2018-01-02T10:53:04.316Z,100472
2018-01-02T10:55:39.242Z,100477
2018-01-02T10:58:07.480Z,100477
2018-01-02T11:00:41.060Z,100480
2018-01-02T11:03:09.237Z,100476
2018-01-02T11:05:39.511Z,100476
2018-01-02T11:08:07.722Z,100488
2018-01-02T11:10:43.462Z,100478
2018-01-02T11:13:11.699Z,100487
2018-01-02T11:15:40.420Z,100493
2018-01-02T11:18:09.349Z,100488
2018-01-02T11:20:37.971Z,100494
2018-01-02T11:23:06.131Z,100507
2018-01-02T11:25:34.234Z,100499
2018-01-02T11:28:03.276Z,100496
2018-01-02T11:30:31.501Z,100500
2018-01-02T11:32:59.982Z,100486
2018-01-02T11:35:28.335Z,100497
2018-01-02T11:39:58.472Z,100493
2018-01-02T11:42:26.570Z,100497
2018-01-02T11:44:55.142Z,100498
2018-01-02T11:47:23.326Z,100495
2018-01-02T11:49:54.315Z,100493
2018-01-02T11:54:58.834Z,100476
2018-01-02T12:26:35.460Z,100442
2018-01-02T12:35:21.822Z,100414
2018-01-02T12:38:02.542Z,100424
2018-01-02T12:40:32.662Z,100415
2018-01-02T12:43:00.916Z,100408
2018-01-02T12:45:35.256Z,100427
2018-01-02T12:48:03.449Z,100431
2018-01-02T12:50:31.611Z,100422
2018-01-02T12:52:59.824Z,100374
2018-01-02T12:55:27.950Z,100440
2018-01-02T12:57:56.062Z,100458
2018-01-02T13:00:24.139Z,100453
2018-01-02T13:02:52.308Z,100451
2018-01-02T13:05:20.483Z,100449
2018-01-02T13:07:48.664Z,100449
2018-01-02T13:10:16.808Z,100451
2018-01-02T13:12:44.931Z,100448
2018-01-02T13:15:13.026Z,100448
2018-01-02T13:17:41.376Z,100447
2018-01-02T13:20:09.456Z,100446
2018-01-02T13:22:37.600Z,100443
2018-01-02T13:25:05.740Z,100449
2018-01-02T13:27:37.438Z,100458
2018-01-02T13:30:06.425Z,100440
2018-01-02T13:32:35.495Z,100445
2018-01-02T13:35:04.003Z,100460
2018-01-02T13:37:32.079Z,100456
2018-01-02T13:40:03.118Z,100454
2018-01-02T13:42:31.307Z,100446
2018-01-02T13:45:00.691Z,100437
2018-01-02T13:47:28.959Z,100440
2018-01-02T13:49:57.100Z,100437
2018-01-02T13:52:25.366Z,100428
2018-01-02T13:54:54.601Z,100431
2018-01-02T13:57:22.716Z,100418
2018-01-02T13:59:50.811Z,100420
2018-01-02T14:02:18.940Z,100429
2018-01-02T14:04:47.844Z,100430
2018-01-02T14:07:15.939Z,100438
2018-01-02T14:09:44.031Z,100446
2018-01-02T14:12:12.370Z,100450
2018-01-02T14:14:40.588Z,100444
2018-01-02T14:17:09.425Z,100441
2018-01-02T14:19:38.475Z,100432
2018-01-02T14:22:06.668Z,100429
2018-01-02T14:24:34.757Z,100416
2018-01-02T14:27:03.731Z,100412
2018-01-02T14:33:35.520Z,100395
2018-01-02T14:38:43.597Z,100392
2018-01-02T14:41:11.700Z,100381
2018-01-02T14:43:39.917Z,100383
2018-01-02T14:46:08.106Z,100379
2018-01-02T14:48:36.231Z,100363
2018-01-02T14:51:04.499Z,100364
2018-01-02T14:53:32.631Z,100369
2018-01-02T14:56:00.858Z,100366
2018-01-02T14:58:31.045Z,100358
2018-01-02T15:00:59.139Z,100357
2018-01-02T15:03:27.313Z,100363
2018-01-02T15:05:57.253Z,100359
2018-01-02T15:08:30.394Z,100378
2018-01-02T15:10:58.503Z,100386
2018-01-02T15:13:26.639Z,100371
2018-01-02T15:15:54.853Z,100374
2018-01-02T15:18:23.057Z,100375
2018-01-02T15:20:52.048Z,100363
2018-01-02T15:23:21.996Z,100370
2018-01-02T15:25:50.214Z,100365
2018-01-02T15:28:20.336Z,100363
2018-01-02T15:30:48.539Z,100352
2018-01-02T15:33:24.440Z,100355
2018-01-02T15:35:52.670Z,100347
2018-01-02T15:38:26.268Z,100354
2018-01-02T15:40:55.397Z,100354
2018-01-02T15:43:26.607Z,100358
2018-01-02T15:45:55.156Z,100346
2018-01-02T15:48:23.269Z,100349
2018-01-02T15:50:51.348Z,100344
2018-01-02T15:53:20.304Z,100367
2018-01-02T15:55:48.795Z,100365
2018-01-02T15:58:17.710Z,100366
2018-01-02T16:00:47.596Z,100359
2018-01-02T16:03:15.735Z,100335
2018-01-02T16:05:43.864Z,100333
2018-01-02T16:08:11.987Z,100336
2018-01-02T16:10:40.116Z,100326
2018-01-02T16:13:09.030Z,100335
2018-01-02T16:15:37.138Z,100325
2018-01-02T16:18:05.222Z,100320
2018-01-02T16:20:33.354Z,100310
2018-01-02T16:23:01.468Z,100302
2018-01-02T16:25:29.608Z,100302
2018-01-02T16:27:57.748Z,100297
2018-01-02T16:30:25.900Z,100294
2018-01-02T16:32:54.044Z,100285
2018-01-02T16:35:22.223Z,100281
2018-01-02T16:37:50.311Z,100270
2018-01-02T16:40:18.662Z,100264
2018-01-02T16:42:48.887Z,100250
2018-01-02T16:45:17.079Z,100251
2018-01-02T16:47:45.259Z,100249
2018-01-02T16:50:13.544Z,100237
2018-01-02T16:52:42.016Z,100235
2018-01-02T16:55:10.106Z,100234
2018-01-02T16:57:39.099Z,100220
2018-01-02T17:00:07.217Z,100213
2018-01-02T17:02:35.417Z,100214
2018-01-02T17:05:03.605Z,100216
2018-01-02T17:07:32.216Z,100210
2018-01-02T17:10:01.170Z,100220
2018-01-02T17:12:29.411Z,100209
2018-01-02T17:14:57.555Z,100218
2018-01-02T17:21:31.126Z,100195
2018-01-02T17:27:15.305Z,100189
2018-01-02T17:29:43.382Z,100182
2018-01-02T17:32:11.531Z,100176
2018-01-02T17:34:44.698Z,100169
2018-01-02T17:37:12.855Z,100168
2018-01-02T17:39:47.391Z,100176
2018-01-02T17:42:16.378Z,100177
2018-01-02T17:44:44.995Z,100181
2018-01-02T17:47:13.076Z,100166
2018-01-02T17:49:41.191Z,100178
2018-01-02T17:58:53.728Z,100148
2018-01-02T18:01:22.928Z,100147
2018-01-02T18:03:51.028Z,100151
2018-01-02T18:06:19.927Z,100134
2018-01-02T18:08:48.795Z,100136
2018-01-02T18:11:16.903Z,100131
2018-01-02T18:13:45.110Z,100142
2018-01-02T18:19:28.833Z,100121
2018-01-02T18:26:00.580Z,100097
2018-01-02T18:28:28.729Z,100095
2018-01-02T18:30:57.759Z,100083
2018-01-02T18:33:25.860Z,100067
2018-01-02T18:35:54.419Z,100069
2018-01-02T18:38:23.795Z,100057
2018-01-02T18:43:32.176Z,100059
2018-01-02T18:46:00.300Z,100052
2018-01-02T18:48:30.366Z,100039
2018-01-02T18:50:58.465Z,100041
2018-01-02T18:53:27.508Z,100033
2018-01-02T18:58:47.560Z,100025
2018-01-02T19:01:15.766Z,100020
2018-01-02T19:03:43.863Z,100028
2018-01-02T19:06:12.750Z,100020
2018-01-02T19:08:40.913Z,99997
2018-01-02T19:11:09.232Z,99995
2018-01-02T19:13:37.978Z,99988
2018-01-02T19:18:57.046Z,99969
2018-01-02T19:21:25.132Z,99980
2018-01-02T19:23:54.957Z,99968
2018-01-02T19:26:23.801Z,99955
2018-01-02T19:28:52.751Z,99946
2018-01-02T19:31:20.870Z,99944
2018-01-02T19:33:48.974Z,99934
2018-01-02T19:36:23.501Z,99936
2018-01-02T19:38:51.586Z,99939
2018-01-02T19:41:20.488Z,99928
2018-01-02T19:43:48.591Z,99924
2018-01-02T19:46:16.707Z,99916
2018-01-02T19:48:44.823Z,99850
2018-01-02T19:51:12.936Z,99871
2018-01-02T19:53:41.059Z,99893
2018-01-02T19:56:09.196Z,99888
2018-01-02T19:58:37.287Z,99896
2018-01-02T20:01:06.165Z,99890
2018-01-02T20:03:34.410Z,99884
2018-01-02T20:06:02.579Z,99877
2018-01-02T20:08:30.717Z,99856
2018-01-02T20:10:58.815Z,99861
2018-01-02T20:13:26.914Z,99840
2018-01-02T20:15:55.449Z,99832
2018-01-02T20:18:29.095Z,99823
2018-01-02T20:22:43.284Z,99811
2018-01-02T20:25:11.424Z,99799
2018-01-02T20:27:39.561Z,99801
2018-01-02T20:30:12.385Z,99796
2018-01-02T20:32:40.542Z,99793
2018-01-02T20:35:08.671Z,99780
2018-01-02T20:37:36.802Z,99782
2018-01-02T20:40:04.955Z,99781
2018-01-02T20:42:33.095Z,99766
2018-01-02T20:45:01.256Z,99763
2018-01-02T20:47:29.346Z,99765
2018-01-02T20:49:57.463Z,99756
2018-01-02T20:52:25.643Z,99747
2018-01-02T20:54:53.819Z,99759
2018-01-02T20:57:22.207Z,99769
2018-01-02T20:59:50.364Z,99755
2018-01-02T21:02:18.434Z,99745
2018-01-02T21:04:47.595Z,99736
2018-01-02T21:07:15.753Z,99746
2018-01-02T21:09:43.867Z,99731
2018-01-02T21:12:12.014Z,99723
2018-01-02T21:14:40.092Z,99704
2018-01-02T21:17:08.316Z,99704
2018-01-02T21:19:36.993Z,99688
2018-01-02T21:22:05.881Z,99695
2018-01-02T21:24:33.991Z,99682
2018-01-02T21:27:02.892Z,99677
2018-01-02T21:29:31.043Z,99674
2018-01-02T21:31:59.201Z,99659
2018-01-02T21:34:27.276Z,99652
2018-01-02T21:36:55.476Z,99655
2018-01-02T21:39:23.557Z,99638
2018-01-02T21:41:51.809Z,99635
2018-01-02T21:44:19.988Z,99617
2018-01-02T21:46:50.792Z,99631
2018-01-02T21:49:18.920Z,99617
2018-01-02T21:51:47.083Z,99613
2018-01-02T21:54:16.053Z,99603
2018-01-02T21:56:44.566Z,99597
2018-01-02T21:59:12.719Z,99582
2018-01-02T22:01:40.871Z,99581
2018-01-02T22:04:08.959Z,99573
2018-01-02T22:06:37.117Z,99565
2018-01-02T22:09:05.232Z,99556
2018-01-02T22:11:33.311Z,99543
2018-01-02T22:14:08.437Z,99498
2018-01-02T22:16:37.280Z,99532
2018-01-02T22:19:05.609Z,99516
2018-01-02T22:21:34.565Z,99502
2018-01-02T22:24:02.813Z,99503
2018-01-02T22:26:31.701Z,99495
2018-01-02T22:28:59.829Z,99485
2018-01-02T22:31:28.729Z,99492
2018-01-02T22:33:57.699Z,99492
2018-01-02T22:36:25.868Z,99468
2018-01-02T22:38:53.944Z,99471
2018-01-02T22:41:22.972Z,99455
2018-01-02T22:43:51.183Z,99441
2018-01-02T22:46:19.327Z,99432
2018-01-02T22:48:47.487Z,99420
2018-01-02T22:51:15.693Z,99413
2018-01-02T22:53:43.860Z,99411
2018-01-02T22:56:11.991Z,99407
2018-01-02T22:58:40.990Z,99398
2018-01-02T23:01:09.231Z,99389
2018-01-02T23:07:40.923Z,99378
2018-01-02T23:10:09.231Z,99364
2018-01-02T23:12:38.112Z,99353
2018-01-02T23:15:07.880Z,99356
2018-01-02T23:17:36.820Z,99347
2018-01-02T23:20:08.830Z,99334
2018-01-02T23:22:36.938Z,99341
2018-01-02T23:25:05.809Z,99330
2018-01-02T23:27:34.406Z,99324
2018-01-02T23:30:02.587Z,99314
2018-01-02T23:32:30.699Z,99318
2018-01-02T23:34:58.935Z,99291
2018-01-02T23:37:29.730Z,99286
2018-01-02T23:39:57.884Z,99271
2018-01-02T23:45:07.058Z,99238
2018-01-02T23:47:35.221Z,99231
2018-01-02T23:50:03.390Z,99221
2018-01-02T23:52:31.514Z,99222
2018-01-02T23:54:59.709Z,99209
2018-01-02T23:57:28.589Z,99189
2018-01-02T23:59:57.522Z,99189
